createdAt,value
2023-02-14T00:00:28.912Z,4.97
2023-02-14T00:02:57.069Z,4.95
2023-02-14T00:05:23.742Z,4.89
2023-02-14T00:07:50.153Z,5.20
2023-02-14T00:10:17.269Z,5.08
2023-02-14T00:12:43.662Z,5.00
2023-02-14T00:15:22.933Z,4.97
2023-02-14T00:17:54.668Z,4.91
2023-02-14T00:20:22.765Z,4.93
2023-02-14T00:22:49.322Z,4.97
2023-02-14T00:25:17.004Z,4.94
2023-02-14T00:27:43.457Z,4.96
2023-02-14T00:30:12.890Z,5.08
2023-02-14T00:32:40.256Z,5.06
2023-02-14T00:35:08.230Z,4.96
2023-02-14T00:37:34.735Z,4.94
2023-02-14T00:40:01.097Z,4.93
2023-02-14T00:42:27.534Z,4.91
2023-02-14T00:44:53.926Z,4.88
2023-02-14T00:47:20.297Z,4.85
2023-02-14T00:49:46.651Z,4.85
2023-02-14T00:52:12.997Z,4.86
2023-02-14T00:54:39.391Z,4.93
2023-02-14T00:57:05.856Z,4.93
2023-02-14T00:59:32.211Z,4.91
2023-02-14T01:01:58.589Z,4.94
2023-02-14T01:04:24.998Z,5.03
2023-02-14T01:06:51.356Z,5.00
2023-02-14T01:09:17.746Z,4.99
2023-02-14T01:11:44.239Z,4.97
2023-02-14T01:14:10.576Z,4.91
2023-02-14T01:16:38.810Z,4.94
2023-02-14T01:19:05.326Z,4.93
2023-02-14T01:21:33.819Z,4.94
2023-02-14T01:24:02.979Z,4.90
2023-02-14T01:26:29.607Z,4.92
2023-02-14T01:28:56.584Z,4.90
2023-02-14T01:31:26.093Z,4.90
2023-02-14T01:33:53.374Z,4.90
2023-02-14T01:36:28.381Z,4.90
2023-02-14T01:38:58.407Z,4.91
2023-02-14T01:41:26.395Z,4.92
2023-02-14T01:43:56.181Z,4.94
2023-02-14T01:46:23.292Z,4.93
2023-02-14T01:48:50.820Z,4.88
2023-02-14T01:51:19.899Z,4.89
2023-02-14T01:53:47.170Z,4.92
2023-02-14T01:56:20.012Z,4.95
2023-02-14T01:58:50.360Z,4.89
2023-02-14T02:01:18.369Z,4.92
2023-02-14T02:03:50.427Z,4.88
2023-02-14T02:06:39.395Z,4.94
2023-02-14T02:09:32.403Z,4.95
2023-02-14T02:11:59.439Z,4.90
2023-02-14T02:14:25.878Z,4.87
2023-02-14T02:17:10.137Z,4.91
2023-02-14T02:20:01.351Z,4.91
2023-02-14T02:22:58.750Z,4.87
2023-02-14T02:26:01.058Z,4.93
2023-02-14T02:29:04.438Z,4.89
2023-02-14T02:32:06.052Z,4.99
2023-02-14T02:34:57.733Z,4.95
2023-02-14T02:37:51.031Z,4.94
2023-02-14T02:40:48.987Z,4.95
2023-02-14T02:43:53.873Z,4.99
2023-02-14T02:46:49.767Z,4.90
2023-02-14T02:49:39.053Z,4.92
2023-02-14T02:52:32.241Z,5.07
2023-02-14T02:55:06.047Z,4.97
2023-02-14T02:57:37.673Z,5.00
2023-02-14T03:00:07.396Z,4.99
2023-02-14T03:03:00.616Z,4.97
2023-02-14T03:05:28.854Z,4.89
2023-02-14T03:07:55.203Z,4.82
2023-02-14T03:10:24.751Z,4.86
2023-02-14T03:13:10.236Z,4.86
2023-02-14T03:16:12.374Z,4.89
2023-02-14T03:19:09.420Z,4.81
2023-02-14T03:22:00.746Z,4.76
2023-02-14T03:24:46.020Z,4.84
2023-02-14T03:27:25.449Z,4.92
2023-02-14T03:30:14.448Z,4.92
2023-02-14T03:32:51.598Z,4.80
2023-02-14T03:35:32.055Z,4.78
2023-02-14T03:38:08.282Z,4.77
2023-02-14T03:40:40.838Z,4.80
2023-02-14T03:43:12.938Z,4.86
2023-02-14T03:45:52.910Z,4.82
2023-02-14T03:48:23.998Z,4.91
2023-02-14T03:50:52.279Z,4.91
2023-02-14T03:53:24.676Z,4.94
2023-02-14T03:56:01.437Z,4.86
2023-02-14T03:58:37.446Z,4.96
2023-02-14T04:01:11.597Z,4.95
2023-02-14T04:03:41.006Z,4.96
2023-02-14T04:06:08.341Z,4.91
2023-02-14T04:08:35.077Z,4.90
2023-02-14T04:11:04.677Z,4.89
2023-02-14T04:13:31.338Z,4.93
2023-02-14T04:15:57.790Z,4.92
2023-02-14T04:18:42.934Z,4.90
2023-02-14T04:21:09.347Z,4.88
2023-02-14T04:23:35.695Z,4.87
2023-02-14T04:26:03.725Z,4.87
2023-02-14T04:28:30.768Z,4.86
2023-02-14T04:31:00.817Z,4.93
2023-02-14T04:33:27.530Z,4.88
2023-02-14T04:35:53.922Z,4.90
2023-02-14T04:38:20.463Z,4.95
2023-02-14T04:40:49.803Z,4.91
2023-02-14T04:43:16.228Z,4.90
2023-02-14T04:45:42.578Z,4.83
2023-02-14T04:48:08.969Z,4.83
2023-02-14T04:50:35.374Z,4.82
2023-02-14T04:53:01.718Z,4.84
2023-02-14T04:55:28.195Z,4.85
2023-02-14T04:57:54.546Z,4.89
2023-02-14T05:00:21.133Z,4.90
2023-02-14T05:02:47.583Z,4.84
2023-02-14T05:05:13.943Z,4.90
2023-02-14T05:07:40.362Z,4.92
2023-02-14T05:10:07.178Z,4.91
2023-02-14T05:12:33.632Z,4.85
2023-02-14T05:15:00.376Z,4.83
2023-02-14T05:17:26.760Z,4.96
2023-02-14T05:19:53.172Z,4.94
2023-02-14T05:22:19.509Z,4.84
2023-02-14T05:24:45.874Z,4.84
2023-02-14T05:27:12.251Z,4.89
2023-02-14T05:29:38.726Z,4.83
2023-02-14T05:32:05.242Z,4.83
2023-02-14T05:34:31.623Z,4.94
2023-02-14T05:36:58.002Z,4.88
2023-02-14T05:39:24.387Z,4.95
2023-02-14T05:41:51.034Z,4.97
2023-02-14T05:44:17.398Z,4.90
2023-02-14T05:46:43.747Z,4.90
2023-02-14T05:49:10.106Z,4.90
2023-02-14T05:51:36.449Z,4.83
2023-02-14T05:54:02.832Z,4.91
2023-02-14T05:56:29.221Z,4.87
2023-02-14T05:58:55.588Z,4.84
2023-02-14T06:01:22.002Z,4.80
2023-02-14T06:03:48.402Z,4.89
2023-02-14T06:06:14.761Z,5.20
2023-02-14T06:08:41.144Z,5.04
2023-02-14T06:11:07.487Z,4.94
2023-02-14T06:13:33.848Z,4.89
2023-02-14T06:16:00.275Z,4.92
2023-02-14T06:18:29.476Z,4.94
2023-02-14T06:20:55.902Z,4.87
2023-02-14T06:23:22.641Z,4.84
2023-02-14T06:25:48.992Z,4.85
2023-02-14T06:28:15.424Z,4.87
2023-02-14T06:30:42.075Z,4.82
2023-02-14T06:33:08.533Z,4.80
2023-02-14T06:35:34.890Z,4.87
2023-02-14T06:38:01.238Z,4.81
2023-02-14T06:40:27.603Z,4.77
2023-02-14T06:42:54.016Z,4.74
2023-02-14T06:45:20.363Z,4.75
2023-02-14T06:47:47.083Z,4.73
2023-02-14T06:50:13.436Z,4.75
2023-02-14T06:52:39.861Z,4.70
2023-02-14T06:55:06.527Z,4.76
2023-02-14T06:57:32.925Z,4.76
2023-02-14T06:59:59.279Z,4.73
2023-02-14T07:02:25.738Z,4.68
2023-02-14T07:04:52.225Z,4.72
2023-02-14T07:07:18.606Z,4.72
2023-02-14T07:09:44.955Z,4.86
2023-02-14T07:12:11.465Z,4.76
2023-02-14T07:14:37.825Z,4.73
2023-02-14T07:17:04.620Z,4.76
2023-02-14T07:19:30.977Z,4.77
2023-02-14T07:21:57.320Z,4.76
2023-02-14T07:24:23.848Z,4.75
2023-02-14T07:26:50.232Z,4.75
2023-02-14T07:29:16.596Z,4.94
2023-02-14T07:31:43.067Z,4.77
2023-02-14T07:34:09.496Z,4.73
2023-02-14T07:36:37.462Z,4.80
2023-02-14T07:39:03.861Z,4.76
2023-02-14T07:41:30.258Z,4.69
2023-02-14T07:43:56.605Z,4.68
2023-02-14T07:46:22.988Z,4.75
2023-02-14T07:48:50.659Z,4.80
2023-02-14T07:51:17.028Z,4.78
2023-02-14T07:53:43.387Z,4.86
2023-02-14T07:56:09.757Z,4.81
2023-02-14T07:58:36.118Z,4.96
2023-02-14T08:01:02.670Z,4.86
2023-02-14T08:03:29.235Z,4.76
2023-02-14T08:05:58.268Z,4.81
2023-02-14T08:08:27.381Z,4.83
2023-02-14T08:10:53.806Z,4.88
2023-02-14T08:13:20.424Z,4.76
2023-02-14T08:16:05.130Z,4.75
2023-02-14T08:18:42.341Z,4.75
2023-02-14T08:21:11.135Z,4.83
2023-02-14T08:23:37.674Z,4.92
2023-02-14T08:26:04.313Z,4.88
2023-02-14T08:28:32.914Z,4.95
2023-02-14T08:30:59.672Z,4.97
2023-02-14T08:33:26.251Z,5.15
2023-02-14T08:35:52.723Z,5.00
2023-02-14T08:38:19.540Z,5.16
2023-02-14T08:40:46.035Z,5.33
2023-02-14T08:43:12.778Z,5.24
2023-02-14T08:45:40.091Z,5.33
2023-02-14T08:48:11.945Z,5.17
2023-02-14T08:50:39.354Z,5.20
2023-02-14T08:53:10.240Z,5.20
2023-02-14T08:55:37.241Z,5.22
2023-02-14T08:58:04.348Z,5.53
2023-02-14T09:00:32.217Z,5.44
2023-02-14T09:02:59.159Z,5.45
2023-02-14T09:05:26.549Z,5.28
2023-02-14T09:07:55.867Z,5.22
2023-02-14T09:10:22.480Z,5.32
2023-02-14T09:12:48.846Z,5.22
2023-02-14T09:15:15.200Z,5.24
2023-02-14T09:17:41.614Z,5.25
2023-02-14T09:20:11.459Z,5.34
2023-02-14T09:22:37.888Z,5.30
2023-02-14T09:25:04.895Z,5.46
2023-02-14T09:27:31.371Z,5.55
2023-02-14T09:29:57.741Z,5.19
2023-02-14T09:32:27.076Z,5.09
2023-02-14T09:34:53.494Z,5.06
2023-02-14T09:37:38.640Z,5.06
2023-02-14T09:40:05.764Z,5.08
2023-02-14T09:43:13.704Z,5.08
2023-02-14T09:45:40.339Z,5.18
2023-02-14T09:48:17.235Z,5.30
2023-02-14T09:50:54.900Z,5.31
2023-02-14T09:53:46.458Z,5.31
2023-02-14T09:56:37.306Z,5.46
2023-02-14T09:59:39.282Z,5.64
2023-02-14T10:02:43.145Z,5.54
2023-02-14T10:05:15.488Z,5.47
2023-02-14T10:08:05.142Z,5.57
2023-02-14T10:10:43.073Z,5.53
2023-02-14T10:13:40.637Z,5.50
2023-02-14T10:16:36.500Z,5.65
2023-02-14T10:19:40.483Z,5.73
2023-02-14T10:22:15.125Z,5.74
2023-02-14T10:24:55.087Z,5.71
2023-02-14T10:27:32.480Z,5.69
2023-02-14T10:29:59.104Z,5.69
2023-02-14T10:32:37.797Z,5.71
2023-02-14T10:35:15.935Z,5.82
2023-02-14T10:38:17.421Z,5.70
2023-02-14T10:41:01.871Z,5.71
2023-02-14T10:43:41.489Z,5.71
2023-02-14T10:46:19.379Z,5.61
2023-02-14T10:49:08.175Z,5.59
2023-02-14T10:51:51.144Z,5.63
2023-02-14T10:54:28.898Z,5.64
2023-02-14T10:57:18.499Z,5.57
2023-02-14T10:59:49.350Z,5.70
2023-02-14T11:02:18.194Z,5.66
2023-02-14T11:04:47.167Z,5.68
2023-02-14T11:07:15.484Z,5.66
2023-02-14T11:09:41.920Z,5.68
2023-02-14T11:12:09.862Z,5.69
2023-02-14T11:14:38.121Z,5.67
2023-02-14T11:17:35.862Z,5.74
2023-02-14T11:20:20.363Z,5.79
2023-02-14T11:22:46.758Z,5.81
2023-02-14T11:25:35.557Z,5.77
2023-02-14T11:28:07.874Z,5.75
2023-02-14T11:30:37.011Z,5.80
2023-02-14T11:33:04.726Z,5.82
2023-02-14T11:35:37.015Z,5.82
2023-02-14T11:38:30.491Z,5.96
2023-02-14T11:40:59.150Z,5.83
2023-02-14T11:43:40.247Z,5.93
2023-02-14T11:46:22.793Z,5.93
2023-02-14T11:48:57.652Z,5.98
2023-02-14T11:51:34.933Z,5.95
2023-02-14T11:54:05.371Z,6.01
2023-02-14T11:56:49.587Z,6.00
2023-02-14T11:59:27.983Z,5.95
2023-02-14T12:01:55.738Z,6.03
2023-02-14T12:04:32.787Z,5.96
2023-02-14T12:07:17.943Z,5.95
2023-02-14T12:09:46.278Z,5.99
2023-02-14T12:12:23.543Z,6.00
2023-02-14T12:14:50.196Z,5.95
2023-02-14T12:17:30.301Z,5.92
2023-02-14T12:20:11.923Z,5.98
2023-02-14T12:23:03.402Z,5.99
2023-02-14T12:25:45.286Z,6.02
2023-02-14T12:28:17.874Z,6.12
2023-02-14T12:30:44.300Z,5.98
2023-02-14T12:33:21.840Z,5.92
2023-02-14T12:36:03.532Z,5.87
2023-02-14T12:38:46.036Z,5.91
2023-02-14T12:41:50.147Z,5.86
2023-02-14T12:44:25.931Z,5.81
2023-02-14T12:46:58.741Z,5.83
2023-02-14T12:49:30.937Z,5.84
2023-02-14T12:52:12.942Z,5.90
2023-02-14T12:54:39.316Z,5.95
2023-02-14T12:57:44.321Z,6.00
2023-02-14T13:00:14.847Z,5.99
2023-02-14T13:03:15.112Z,6.03
2023-02-14T13:06:17.523Z,5.96
2023-02-14T13:09:21.336Z,5.90
2023-02-14T13:12:17.201Z,5.98
2023-02-14T13:14:58.145Z,6.16
2023-02-14T13:17:38.498Z,6.12
2023-02-14T13:20:30.971Z,6.18
2023-02-14T13:23:02.995Z,6.17
2023-02-14T13:25:34.520Z,6.06
2023-02-14T13:28:04.653Z,6.08
2023-02-14T13:30:37.133Z,6.07
2023-02-14T13:33:09.472Z,6.02
2023-02-14T13:35:36.144Z,6.04
2023-02-14T13:38:06.863Z,6.13
2023-02-14T13:40:35.474Z,6.08
2023-02-14T13:43:02.637Z,5.98
2023-02-14T13:45:37.824Z,5.96
2023-02-14T13:48:14.457Z,6.08
2023-02-14T13:50:59.660Z,6.07
2023-02-14T13:53:40.211Z,6.11
2023-02-14T13:56:12.725Z,6.15
2023-02-14T13:58:52.913Z,6.17
2023-02-14T14:01:28.451Z,6.19
2023-02-14T14:04:01.775Z,6.17
2023-02-14T14:06:28.445Z,6.18
2023-02-14T14:08:57.085Z,6.19
2023-02-14T14:11:23.386Z,6.20
2023-02-14T14:14:01.600Z,6.21
2023-02-14T14:16:33.284Z,6.22
2023-02-14T14:19:21.987Z,6.24
2023-02-14T14:22:10.088Z,6.28
2023-02-14T14:24:38.045Z,6.30
2023-02-14T14:27:06.947Z,6.38
2023-02-14T14:29:53.930Z,6.33
2023-02-14T14:32:30.315Z,6.25
2023-02-14T14:35:18.711Z,6.28
2023-02-14T14:37:51.699Z,6.25
2023-02-14T14:40:32.044Z,6.22
2023-02-14T14:43:22.779Z,6.20
2023-02-14T14:45:51.482Z,6.13
2023-02-14T14:48:43.485Z,6.14
2023-02-14T14:51:36.846Z,6.15
2023-02-14T14:54:13.460Z,6.17
2023-02-14T14:56:50.889Z,6.15
2023-02-14T14:59:22.408Z,6.23
2023-02-14T15:01:54.215Z,6.21
2023-02-14T15:04:32.396Z,6.15
2023-02-14T15:07:18.669Z,6.18
2023-02-14T15:09:45.379Z,6.17
2023-02-14T15:12:35.714Z,6.18
2023-02-14T15:15:02.267Z,6.20
2023-02-14T15:17:31.656Z,6.20
2023-02-14T15:20:07.048Z,6.25
2023-02-14T15:22:41.789Z,6.32
2023-02-14T15:25:20.596Z,6.34
2023-02-14T15:27:47.832Z,6.43
2023-02-14T15:30:37.078Z,6.61
2023-02-14T15:33:05.956Z,6.54
2023-02-14T15:35:34.790Z,6.57
2023-02-14T15:38:04.542Z,6.55
2023-02-14T15:40:33.941Z,6.45
2023-02-14T15:43:41.505Z,6.35
2023-02-14T15:46:29.625Z,6.19
2023-02-14T15:49:00.811Z,6.20
2023-02-14T15:51:30.728Z,6.03
2023-02-14T15:54:00.378Z,5.89
2023-02-14T15:56:43.162Z,5.80
2023-02-14T15:59:17.502Z,5.66
2023-02-14T16:01:52.537Z,5.60
2023-02-14T16:04:27.084Z,5.55
2023-02-14T16:07:24.361Z,5.48
2023-02-14T16:10:11.818Z,5.44
2023-02-14T16:12:39.830Z,5.65
2023-02-14T16:15:15.147Z,5.66
2023-02-14T16:17:43.912Z,5.53
2023-02-14T16:20:38.940Z,5.39
2023-02-14T16:23:20.456Z,5.28
2023-02-14T16:25:47.884Z,5.18
2023-02-14T16:28:14.790Z,5.07
2023-02-14T16:30:42.548Z,5.12
2023-02-14T16:33:36.853Z,5.02
2023-02-14T16:36:14.056Z,5.14
2023-02-14T16:38:43.864Z,5.16
2023-02-14T16:41:19.181Z,5.00
2023-02-14T16:43:46.613Z,4.89
2023-02-14T16:46:14.664Z,4.84
2023-02-14T16:48:42.401Z,4.71
2023-02-14T16:51:14.113Z,4.64
2023-02-14T16:53:42.593Z,4.56
2023-02-14T16:56:17.720Z,4.54
2023-02-14T16:58:44.531Z,4.47
2023-02-14T17:01:10.971Z,4.46
2023-02-14T17:03:39.596Z,4.40
2023-02-14T17:06:08.075Z,4.32
2023-02-14T17:08:34.846Z,4.30
2023-02-14T17:11:02.101Z,4.22
2023-02-14T17:13:32.873Z,4.21
2023-02-14T17:16:01.369Z,4.18
2023-02-14T17:18:30.369Z,4.16
2023-02-14T17:20:59.198Z,4.10
2023-02-14T17:23:26.135Z,4.06
2023-02-14T17:25:52.528Z,4.05
2023-02-14T17:28:18.854Z,4.04
2023-02-14T17:30:45.224Z,4.04
2023-02-14T17:33:11.572Z,4.02
2023-02-14T17:35:38.094Z,3.95
2023-02-14T17:38:04.494Z,3.91
2023-02-14T17:40:31.901Z,3.94
2023-02-14T17:42:58.450Z,3.86
2023-02-14T17:45:24.922Z,3.87
2023-02-14T17:47:51.293Z,3.84
2023-02-14T17:50:18.123Z,3.76
2023-02-14T17:52:44.990Z,3.76
2023-02-14T17:55:12.127Z,3.69
2023-02-14T17:57:40.848Z,3.61
2023-02-14T18:00:11.614Z,3.63
2023-02-14T18:02:38.538Z,3.58
2023-02-14T18:05:07.229Z,3.51
2023-02-14T18:07:33.785Z,3.49
2023-02-14T18:10:00.178Z,3.42
2023-02-14T18:12:26.622Z,3.41
2023-02-14T18:14:55.081Z,3.34
2023-02-14T18:17:21.503Z,3.39
2023-02-14T18:19:47.930Z,3.29
2023-02-14T18:22:14.711Z,3.25
2023-02-14T18:24:41.593Z,3.16
2023-02-14T18:27:07.956Z,3.21
2023-02-14T18:29:36.183Z,3.14
2023-02-14T18:32:03.800Z,3.04
2023-02-14T18:34:30.260Z,2.98
2023-02-14T18:36:57.174Z,3.01
2023-02-14T18:39:23.649Z,2.99
2023-02-14T18:41:50.174Z,3.01
2023-02-14T18:44:16.581Z,2.94
2023-02-14T18:46:42.955Z,2.91
2023-02-14T18:49:10.274Z,2.91
2023-02-14T18:51:39.299Z,2.89
2023-02-14T18:54:06.490Z,2.92
2023-02-14T18:56:35.678Z,2.84
2023-02-14T18:59:04.838Z,2.72
2023-02-14T19:01:36.716Z,2.67
2023-02-14T19:04:06.755Z,2.67
2023-02-14T19:06:34.032Z,2.73
2023-02-14T19:09:01.747Z,2.67
2023-02-14T19:11:31.484Z,2.67
2023-02-14T19:13:59.297Z,2.56
2023-02-14T19:16:28.520Z,2.48
2023-02-14T19:18:55.414Z,2.51
2023-02-14T19:21:24.579Z,2.44
2023-02-14T19:23:53.021Z,2.53
2023-02-14T19:26:22.016Z,2.52
2023-02-14T19:28:50.485Z,2.55
2023-02-14T19:31:16.940Z,2.50
2023-02-14T19:33:44.952Z,2.46
2023-02-14T19:36:13.305Z,2.46
2023-02-14T19:38:41.495Z,2.45
2023-02-14T19:41:16.654Z,2.39
2023-02-14T19:43:44.250Z,2.34
2023-02-14T19:46:10.613Z,2.28
2023-02-14T19:48:37.011Z,2.31
2023-02-14T19:51:03.604Z,2.28
2023-02-14T19:53:30.314Z,2.41
2023-02-14T19:55:56.674Z,2.33
2023-02-14T19:58:25.981Z,2.31
2023-02-14T20:00:59.267Z,2.35
2023-02-14T20:03:27.872Z,2.26
2023-02-14T20:05:54.234Z,2.22
2023-02-14T20:08:21.795Z,2.20
2023-02-14T20:10:48.142Z,2.19
2023-02-14T20:13:14.536Z,2.22
2023-02-14T20:15:40.919Z,2.17
2023-02-14T20:18:07.599Z,2.19
2023-02-14T20:20:53.913Z,2.16
2023-02-14T20:23:20.245Z,2.06
2023-02-14T20:25:46.574Z,2.08
2023-02-14T20:28:12.925Z,2.08
2023-02-14T20:30:39.649Z,2.03
2023-02-14T20:33:06.494Z,1.99
2023-02-14T20:35:38.017Z,2.05
2023-02-14T20:38:07.455Z,2.11
2023-02-14T20:40:43.436Z,1.97
2023-02-14T20:43:09.700Z,1.98
2023-02-14T20:45:36.029Z,2.04
2023-02-14T20:48:04.182Z,2.04
2023-02-14T20:50:31.480Z,2.06
2023-02-14T20:52:58.167Z,1.97
2023-02-14T20:55:27.018Z,1.94
2023-02-14T20:57:53.774Z,1.94
2023-02-14T21:00:20.263Z,1.88
2023-02-14T21:02:46.636Z,1.89
2023-02-14T21:05:18.270Z,1.88
2023-02-14T21:07:44.636Z,1.89
2023-02-14T21:10:11.071Z,1.97
2023-02-14T21:12:38.502Z,1.97
2023-02-14T21:15:06.882Z,2.11
2023-02-14T21:17:33.862Z,2.05
2023-02-14T21:20:00.214Z,1.92
2023-02-14T21:22:26.566Z,1.88
2023-02-14T21:24:52.915Z,1.82
2023-02-14T21:27:19.297Z,1.78
2023-02-14T21:29:45.637Z,1.78
2023-02-14T21:32:12.106Z,1.76
2023-02-14T21:34:38.554Z,1.75
2023-02-14T21:37:04.946Z,1.78
2023-02-14T21:39:31.378Z,1.77
2023-02-14T21:41:57.850Z,1.66
2023-02-14T21:44:42.621Z,1.64
2023-02-14T21:47:09.022Z,1.60
2023-02-14T21:49:53.770Z,1.60
2023-02-14T21:52:20.182Z,1.59
2023-02-14T21:54:47.009Z,1.53
2023-02-14T21:57:13.378Z,1.54
2023-02-14T21:59:40.290Z,1.65
2023-02-14T22:02:07.162Z,1.56
2023-02-14T22:04:35.373Z,1.57
2023-02-14T22:07:01.776Z,1.57
2023-02-14T22:09:28.157Z,1.53
2023-02-14T22:11:54.572Z,1.50
2023-02-14T22:14:20.930Z,1.44
2023-02-14T22:16:47.278Z,1.40
2023-02-14T22:19:15.452Z,1.42
2023-02-14T22:21:42.701Z,1.40
2023-02-14T22:24:09.044Z,1.40
2023-02-14T22:26:40.800Z,1.43
2023-02-14T22:29:09.720Z,1.38
2023-02-14T22:31:38.396Z,1.44
2023-02-14T22:34:06.345Z,1.42
2023-02-14T22:36:32.752Z,1.35
2023-02-14T22:39:02.870Z,1.34
2023-02-14T22:41:29.580Z,1.31
2023-02-14T22:43:57.310Z,1.32
2023-02-14T22:46:27.620Z,1.29
2023-02-14T22:48:55.043Z,1.27
2023-02-14T22:51:38.683Z,1.30
2023-02-14T22:54:07.830Z,1.29
2023-02-14T22:56:38.774Z,1.28
2023-02-14T22:59:08.265Z,1.23
2023-02-14T23:01:35.706Z,1.23
2023-02-14T23:04:03.629Z,1.25
2023-02-14T23:06:32.400Z,1.27
2023-02-14T23:09:00.535Z,1.19
2023-02-14T23:11:29.733Z,1.24
2023-02-14T23:14:14.904Z,1.23
2023-02-14T23:17:00.695Z,1.21
2023-02-14T23:19:49.135Z,1.24
2023-02-14T23:22:20.349Z,1.20
2023-02-14T23:24:48.135Z,1.23
2023-02-14T23:27:16.574Z,1.19
2023-02-14T23:29:42.936Z,1.17
2023-02-14T23:32:09.709Z,1.13
2023-02-14T23:34:39.872Z,1.18
2023-02-14T23:37:07.556Z,1.15
2023-02-14T23:39:36.549Z,1.14
2023-02-14T23:42:04.421Z,1.08
2023-02-14T23:44:31.040Z,1.14
2023-02-14T23:46:59.238Z,1.07
2023-02-14T23:49:26.298Z,1.11
2023-02-14T23:51:55.064Z,1.12
2023-02-14T23:54:23.072Z,1.12
2023-02-14T23:56:50.963Z,1.05
2023-02-14T23:59:17.493Z,1.04
